createdAt,value
2023-05-06T00:02:17.079Z,963.25
2023-05-06T00:07:19.230Z,963.23
2023-05-06T00:12:21.020Z,963.23
2023-05-06T00:17:23.021Z,963.16
2023-05-06T00:22:24.307Z,963.05
2023-05-06T00:27:26.399Z,963.05
2023-05-06T00:32:27.576Z,963.06
2023-05-06T00:37:29.644Z,963
2023-05-06T00:42:30.791Z,962.93
2023-05-06T00:47:32.909Z,962.92
2023-05-06T00:52:34.492Z,962.88
2023-05-06T00:57:36.505Z,962.89
2023-05-06T01:02:46.808Z,962.91
2023-05-06T01:07:39.591Z,962.82
2023-05-06T01:12:40.880Z,962.78
2023-05-06T01:17:42.742Z,962.8
2023-05-06T01:22:44.195Z,962.74
2023-05-06T01:27:45.881Z,962.81
2023-05-06T01:32:47.701Z,962.73
2023-05-06T01:37:49.709Z,962.83
2023-05-06T01:42:50.956Z,962.86
2023-05-06T01:47:52.525Z,962.86
2023-05-06T01:52:53.829Z,962.79
2023-05-06T01:57:55.326Z,962.79
2023-05-06T02:02:57.367Z,962.73
2023-05-06T02:07:58.445Z,962.67
2023-05-06T02:13:00.584Z,962.72
2023-05-06T02:18:01.932Z,962.83
2023-05-06T02:23:03.587Z,962.78
2023-05-06T02:28:05.088Z,962.73
2023-05-06T02:33:06.507Z,962.71
2023-05-06T02:38:08.274Z,962.79
2023-05-06T02:43:10.337Z,962.77
2023-05-06T02:48:11.834Z,962.73
2023-05-06T02:53:13.246Z,962.72
2023-05-06T02:58:15.277Z,962.68
2023-05-06T03:03:17.213Z,962.69
2023-05-06T03:08:18.622Z,962.64
2023-05-06T03:13:20.486Z,962.6
2023-05-06T03:18:21.968Z,962.61
2023-05-06T03:23:23.479Z,962.62
2023-05-06T03:28:24.844Z,962.57
2023-05-06T03:33:26.485Z,962.59
2023-05-06T03:38:28.339Z,962.58
2023-05-06T03:48:31.123Z,962.54
2023-05-06T05:34:06.553Z,963.27
2023-05-06T06:19:28.716Z,963.5
2023-05-06T06:24:30.065Z,963.5
2023-05-06T06:29:31.260Z,963.5
2023-05-06T06:34:32.798Z,963.56
2023-05-06T06:39:34.252Z,963.65
2023-05-06T06:44:36.017Z,963.71
2023-05-06T06:49:38.081Z,963.72
2023-05-06T06:54:39.479Z,963.75
2023-05-06T06:59:40.776Z,963.77
2023-05-06T07:04:42.375Z,963.78
2023-05-06T07:09:44.312Z,963.73
2023-05-06T07:14:45.413Z,963.75
2023-05-06T07:19:46.702Z,963.7
2023-05-06T07:24:48.532Z,963.69
2023-05-06T07:29:49.938Z,963.71
2023-05-06T07:34:51.397Z,963.79
2023-05-06T07:39:52.820Z,963.79
2023-05-06T07:44:54.079Z,963.81
2023-05-06T07:49:55.668Z,963.93
2023-05-06T07:54:57.418Z,963.98
2023-05-06T07:59:59.421Z,964.01
2023-05-06T08:05:00.722Z,963.98
2023-05-06T08:10:01.913Z,964.01
2023-05-06T08:15:03.233Z,964.02
2023-05-06T08:20:04.709Z,964.06
2023-05-06T08:25:06.510Z,964.09
2023-05-06T08:30:07.872Z,964.15
2023-05-06T08:35:09.850Z,964.2
2023-05-06T08:40:10.875Z,964.16
2023-05-06T08:45:12.475Z,964.16
2023-05-06T08:50:13.728Z,964.16
2023-05-06T08:55:15.273Z,964.16
2023-05-06T09:00:17.374Z,964.13
2023-05-06T09:05:18.756Z,964.17
2023-05-06T09:10:19.970Z,964.22
2023-05-06T09:15:21.351Z,964.12
2023-05-06T09:20:22.544Z,964.08
2023-05-06T09:25:24.336Z,964.15
2023-05-06T09:30:26.197Z,964.15
2023-05-06T09:35:28.149Z,964.05
2023-05-06T09:40:29.587Z,964.03
2023-05-06T09:45:31.366Z,964.07
2023-05-06T09:50:33.222Z,964.02
2023-05-06T09:55:34.868Z,964.03
2023-05-06T10:00:36.794Z,964.02
2023-05-06T10:05:38.293Z,963.94
2023-05-06T10:10:39.751Z,963.94
2023-05-06T10:15:41.769Z,963.9
2023-05-06T10:20:43.437Z,963.9
2023-05-06T10:25:45.417Z,963.79
2023-05-06T10:30:47.243Z,963.75
2023-05-06T10:35:48.810Z,963.74
2023-05-06T10:40:50.648Z,963.69
2023-05-06T10:45:51.938Z,963.59
2023-05-06T10:50:53.232Z,963.45
2023-05-06T10:55:55.087Z,963.43
2023-05-06T11:00:57.203Z,963.42
2023-05-06T11:05:58.781Z,963.37
2023-05-06T11:11:00.396Z,963.32
2023-05-06T11:16:02.533Z,963.33
2023-05-06T11:21:03.872Z,963.33
2023-05-06T11:26:05.867Z,963.28
2023-05-06T11:31:07.459Z,963.41
2023-05-06T11:36:09.487Z,963.39
2023-05-06T11:41:11.265Z,963.41
2023-05-06T11:46:12.968Z,963.46
2023-05-06T11:51:14.522Z,963.36
2023-05-06T11:56:15.805Z,963.24
2023-05-06T12:01:17.896Z,963.21
2023-05-06T12:06:20.044Z,963.15
2023-05-06T12:11:21.767Z,963.2
2023-05-06T12:16:23.218Z,963.18
2023-05-06T12:21:25.049Z,963.2
2023-05-06T12:26:26.597Z,963.2
2023-05-06T12:31:28.361Z,963.16
2023-05-06T12:36:29.604Z,963.09
2023-05-06T12:41:30.981Z,963.02
2023-05-06T12:46:32.485Z,963.01
2023-05-06T12:51:34.033Z,963.02
2023-05-06T12:56:35.601Z,963.03
2023-05-06T13:01:36.913Z,963.02
2023-05-06T13:06:38.623Z,962.95
2023-05-06T13:11:39.944Z,962.88
2023-05-06T13:16:41.874Z,962.79
2023-05-06T13:21:43.323Z,962.74
2023-05-06T13:26:44.975Z,962.73
2023-05-06T13:31:47.085Z,962.68
2023-05-06T13:36:48.735Z,962.65
2023-05-06T13:41:50.671Z,962.62
2023-05-06T13:46:52.933Z,962.58
2023-05-06T13:51:54.199Z,962.58
2023-05-06T13:56:56.032Z,962.52
2023-05-06T14:01:57.651Z,962.5
2023-05-06T14:06:59.297Z,962.4
2023-05-06T14:12:00.834Z,962.37
2023-05-06T14:17:02.964Z,962.36
2023-05-06T14:22:04.232Z,962.32
2023-05-06T14:27:05.757Z,962.25
2023-05-06T14:32:07.594Z,962.24
2023-05-06T14:37:09.271Z,962.26
2023-05-06T14:42:10.687Z,962.23
2023-05-06T14:47:11.945Z,962.26
2023-05-06T14:52:13.202Z,962.17
2023-05-06T14:57:14.415Z,962.11
2023-05-06T15:02:16.049Z,962.14
2023-05-06T15:07:17.934Z,962.14
2023-05-06T15:12:19.584Z,962.14
2023-05-06T15:17:21.105Z,962.12
2023-05-06T15:22:22.745Z,962.15
2023-05-06T15:27:23.944Z,962.06
2023-05-06T15:32:25.837Z,962.06
2023-05-06T15:37:27.978Z,962.09
2023-05-06T15:42:29.918Z,962.11
2023-05-06T15:47:31.211Z,962.18
2023-05-06T15:52:32.609Z,962.13
2023-05-06T15:57:33.885Z,962.17
2023-05-06T16:02:35.775Z,962.13
2023-05-06T16:07:37.034Z,962.09
2023-05-06T16:12:38.227Z,962.14
2023-05-06T16:17:40.357Z,962.13
2023-05-06T16:22:42.411Z,962.1
2023-05-06T16:27:44.141Z,962.08
2023-05-06T16:32:45.725Z,962.05
2023-05-06T16:37:47.032Z,962.07
2023-05-06T16:42:48.875Z,962.09
2023-05-06T16:47:50.990Z,962.02
2023-05-06T16:52:52.594Z,962.01
2023-05-06T16:57:54.054Z,961.99
2023-05-06T17:02:55.401Z,961.99
2023-05-06T17:07:56.629Z,961.95
2023-05-06T17:12:58.716Z,961.94
2023-05-06T17:18:00.910Z,961.91
2023-05-06T17:23:02.857Z,961.9
2023-05-06T17:28:04.563Z,961.87
2023-05-06T17:33:06.511Z,961.84
2023-05-06T17:38:08.331Z,961.87
2023-05-06T17:43:10.437Z,961.89
2023-05-06T17:48:12.420Z,961.93
2023-05-06T17:53:13.745Z,961.97
2023-05-06T17:58:15.074Z,962.02
2023-05-06T18:03:16.929Z,962.03
2023-05-06T18:08:18.718Z,962.03
2023-05-06T18:13:20.844Z,962
2023-05-06T18:18:21.915Z,961.99
2023-05-06T18:23:23.683Z,962.04
2023-05-06T18:28:24.901Z,962.03
2023-05-06T18:33:26.456Z,962.05
2023-05-06T18:58:34.210Z,962.26
2023-05-06T20:29:06.463Z,962.31
2023-05-06T21:34:27.963Z,962.3
2023-05-06T21:39:29.546Z,962.24
2023-05-06T21:44:31.026Z,962.26
2023-05-06T21:49:32.372Z,962.26
2023-05-06T21:54:34.138Z,962.27
2023-05-06T21:59:36.305Z,962.35
2023-05-06T22:04:37.895Z,962.4
2023-05-06T22:09:39.937Z,962.41
2023-05-06T22:14:42.101Z,962.43
2023-05-06T22:19:44.057Z,962.44
2023-05-06T22:24:45.942Z,962.37
2023-05-06T22:29:48.057Z,962.31
2023-05-06T22:34:49.920Z,962.28
2023-05-06T22:39:51.654Z,962.22
2023-05-06T22:44:53.740Z,962.2
2023-05-06T22:49:55.730Z,962.18
2023-05-06T22:54:57.088Z,962.11
2023-05-06T23:00:04.760Z,962.15
2023-05-06T23:05:06.139Z,962.08
2023-05-06T23:10:07.985Z,962.1
2023-05-06T23:15:09.711Z,962.07
2023-05-06T23:20:11.813Z,962.12
2023-05-06T23:25:13.375Z,962.05
2023-05-06T23:30:14.558Z,962.04
2023-05-06T23:35:15.786Z,962.04
2023-05-06T23:40:17.010Z,962.12
2023-05-06T23:45:18.525Z,962.01
2023-05-06T23:50:20.388Z,962
2023-05-06T23:55:21.969Z,962.09
